Time;durP1;ratioP1;P1;durP2;ratioP2;P2;SDS_P1;SDS_P2;PMS_P1;PMS_P2;Temp;Humidity;BMP_temperature;BMP_pressure;BME280_temperature;BME280_humidity;BME280_pressure;Samples;Min_cycle;Max_cycle;Signal;HPM_P1;HPM_P2
2021/06/09 00:00:30;;;;;;;;;;;14.90;99.90;;;;;;5089885;28;20365;-70
2021/06/09 00:02:55;;;;;;;;;;;14.90;99.90;;;;;;5094412;28;19934;-69
2021/06/09 00:05:21;;;;;;;;;;;14.90;99.90;;;;;;5094195;28;20280;-69
2021/06/09 00:07:46;;;;;;;;;;;15.00;99.90;;;;;;5093579;28;20280;-69
2021/06/09 00:10:12;;;;;;;;;;;14.90;99.90;;;;;;5094347;28;19966;-70
2021/06/09 00:12:38;;;;;;;;;;;14.90;99.90;;;;;;5094412;28;19961;-70
2021/06/09 00:15:05;;;;;;;;;;;14.90;99.90;;;;;;5093990;28;19908;-69
2021/06/09 00:17:30;;;;;;;;;;;14.80;99.90;;;;;;5093085;28;20369;-69
2021/06/09 00:19:56;;;;;;;;;;;14.70;99.90;;;;;;5094077;28;19909;-70
2021/06/09 00:22:21;;;;;;;;;;;14.60;99.90;;;;;;5094245;28;19938;-70
2021/06/09 00:24:47;;;;;;;;;;;14.50;99.90;;;;;;5093999;28;20372;-69
2021/06/09 00:27:13;;;;;;;;;;;14.40;99.90;;;;;;5093131;28;19998;-70
2021/06/09 00:29:39;;;;;;;;;;;14.40;99.90;;;;;;5093734;28;19951;-69
2021/06/09 00:32:05;;;;;;;;;;;14.30;99.90;;;;;;5088371;28;19955;-69
2021/06/09 00:34:30;;;;;;;;;;;14.20;99.90;;;;;;5093715;28;20396;-69
2021/06/09 00:36:55;;;;;;;;;;;14.20;99.90;;;;;;5091889;28;19962;-69
2021/06/09 00:39:21;;;;;;;;;;;14.10;99.90;;;;;;5093716;28;19912;-69
2021/06/09 00:41:46;;;;;;;;;;;14.10;99.90;;;;;;5093637;28;19920;-69
2021/06/09 00:44:12;;;;;;;;;;;14.10;99.90;;;;;;5093642;28;19912;-69
2021/06/09 00:46:39;;;;;;;;;;;14.10;99.90;;;;;;5092675;28;19922;-70
2021/06/09 00:49:05;;;;;;;;;;;14.00;99.90;;;;;;5093502;28;19995;-69
2021/06/09 00:51:31;;;;;;;;;;;14.00;99.90;;;;;;5091738;28;19909;-69
2021/06/09 00:53:59;;;;;;;;;;;14.10;99.90;;;;;;5087165;28;19981;-69
2021/06/09 00:56:25;;;;;;;;;;;14.10;99.90;;;;;;5092615;28;19908;-69
2021/06/09 00:58:51;;;;;;;;;;;14.10;99.90;;;;;;5088072;28;19918;-70
2021/06/09 01:01:17;;;;;;;;;;;14.10;99.90;;;;;;5093069;28;19955;-69
2021/06/09 01:03:43;;;;;;;;;;;14.20;99.90;;;;;;5093296;28;19999;-70
2021/06/09 01:06:09;;;;;;;;;;;14.20;99.90;;;;;;5092517;28;20348;-70
2021/06/09 01:08:38;;;;;;;;;;;14.10;99.90;;;;;;5093145;28;20353;-69
2021/06/09 01:11:05;;;;;;;;;;;14.10;99.90;;;;;;5093201;28;19914;-69
2021/06/09 01:13:31;;;;;;;;;;;14.00;99.90;;;;;;5093125;28;19941;-70
2021/06/09 01:15:58;;;;;;;;;;;14.00;99.90;;;;;;5091871;28;19913;-70
2021/06/09 01:18:24;;;;;;;;;;;14.00;99.90;;;;;;5092848;28;19912;-69
2021/06/09 01:20:49;;;;;;;;;;;14.00;99.90;;;;;;5093026;28;19908;-69
2021/06/09 01:23:15;;;;;;;;;;;13.90;99.90;;;;;;5092999;28;19908;-69
2021/06/09 01:25:41;;;;;;;;;;;13.90;99.90;;;;;;5092063;28;19912;-69
2021/06/09 01:28:07;;;;;;;;;;;13.90;99.90;;;;;;5088365;28;20399;-70
2021/06/09 01:30:33;;;;;;;;;;;13.80;99.90;;;;;;5087201;28;20019;-70
2021/06/09 01:32:59;;;;;;;;;;;13.80;99.90;;;;;;5088898;28;20024;-69
2021/06/09 01:35:24;;;;;;;;;;;13.70;99.90;;;;;;5092621;28;19999;-69
2021/06/09 01:37:50;;;;;;;;;;;13.60;99.90;;;;;;5082423;28;19912;-70
2021/06/09 01:40:17;;;;;;;;;;;13.60;99.90;;;;;;5092174;28;20288;-69
2021/06/09 01:42:43;;;;;;;;;;;13.60;99.90;;;;;;5092440;28;19908;-69
2021/06/09 01:45:11;;;;;;;;;;;13.60;99.90;;;;;;5092588;28;19919;-69
2021/06/09 01:47:37;;;;;;;;;;;13.60;99.90;;;;;;5091515;28;19962;-70
2021/06/09 01:50:07;;;;;;;;;;;13.70;99.90;;;;;;5092686;28;20307;-69
2021/06/09 01:52:32;;;;;;;;;;;13.80;99.90;;;;;;5092386;28;19998;-70
2021/06/09 01:54:59;;;;;;;;;;;13.80;99.90;;;;;;5092280;28;19998;-70
2021/06/09 01:57:24;;;;;;;;;;;13.80;99.90;;;;;;5091358;28;19908;-70
2021/06/09 01:59:50;;;;;;;;;;;13.90;99.90;;;;;;5092258;28;20391;-69
2021/06/09 02:02:16;;;;;;;;;;;13.90;99.90;;;;;;5091675;28;20285;-69
2021/06/09 02:04:41;;;;;;;;;;;13.90;99.90;;;;;;5091951;28;19915;-69
2021/06/09 02:07:07;;;;;;;;;;;13.90;99.90;;;;;;5083993;28;20081;-69
2021/06/09 02:09:34;;;;;;;;;;;13.80;99.90;;;;;;5090514;28;19919;-69
2021/06/09 02:12:00;;;;;;;;;;;13.80;99.90;;;;;;5091914;28;19908;-69
2021/06/09 02:14:25;;;;;;;;;;;13.80;99.90;;;;;;5091672;28;20330;-69
2021/06/09 02:16:51;;;;;;;;;;;13.80;99.90;;;;;;5090619;28;19908;-69
2021/06/09 02:19:16;;;;;;;;;;;13.90;99.90;;;;;;5091610;28;19979;-70
2021/06/09 02:21:43;;;;;;;;;;;14.00;99.90;;;;;;5091783;28;19908;-70
2021/06/09 02:24:10;;;;;;;;;;;14.00;99.90;;;;;;5091476;28;20383;-69
2021/06/09 02:26:36;;;;;;;;;;;14.10;99.90;;;;;;5090735;28;20335;-69
2021/06/09 02:29:03;;;;;;;;;;;14.10;99.90;;;;;;5091551;28;19955;-70
2021/06/09 02:31:29;;;;;;;;;;;14.20;99.90;;;;;;5088075;28;20277;-70
2021/06/09 02:33:55;;;;;;;;;;;14.10;99.90;;;;;;5111880;28;19929;-70
2021/06/09 02:36:20;;;;;;;;;;;14.20;99.90;;;;;;5110875;28;20002;-69
2021/06/09 02:38:47;;;;;;;;;;;14.20;99.90;;;;;;5111491;28;19918;-69
2021/06/09 02:41:12;;;;;;;;;;;14.20;99.90;;;;;;5111861;28;19916;-70
2021/06/09 02:43:38;;;;;;;;;;;14.20;99.90;;;;;;5111828;28;20387;-69
2021/06/09 02:46:13;;;;;;;;;;;14.10;99.90;;;;;;5110506;28;20364;-69
2021/06/09 02:48:41;;;;;;;;;;;14.00;99.90;;;;;;5111304;28;19915;-68
2021/06/09 02:51:06;;;;;;;;;;;14.00;99.90;;;;;;5111617;28;19911;-69
2021/06/09 02:53:38;;;;;;;;;;;14.00;99.90;;;;;;5111559;28;20398;-69
2021/06/09 02:56:06;;;;;;;;;;;14.00;99.90;;;;;;5110694;28;19908;-69
2021/06/09 02:58:47;;;;;;;;;;;14.00;99.90;;;;;;5111384;28;20410;-70
2021/06/09 03:01:15;;;;;;;;;;;14.10;99.90;;;;;;5094348;28;19909;-69
2021/06/09 03:04:01;;;;;;;;;;;14.10;99.90;;;;;;5090998;28;20286;-69
2021/06/09 03:06:35;;;;;;;;;;;14.10;99.90;;;;;;5090280;28;19988;-69
2021/06/09 03:09:04;;;;;;;;;;;14.00;99.90;;;;;;5091071;28;19916;-70
2021/06/09 03:11:38;;;;;;;;;;;14.00;99.90;;;;;;5091121;28;19961;-69
2021/06/09 03:17:02;;;;;;;;;;;14.00;99.90;;;;;;5089764;28;20002;-69
2021/06/09 03:19:51;;;;;;;;;;;14.10;99.90;;;;;;5090853;28;20284;-70
2021/06/09 03:22:19;;;;;;;;;;;14.10;99.90;;;;;;5071045;28;20273;-69
2021/06/09 03:24:46;;;;;;;;;;;14.20;99.90;;;;;;5090736;28;19979;-69
2021/06/09 03:27:20;;;;;;;;;;;14.30;99.90;;;;;;5089978;28;19909;-69
2021/06/09 03:29:50;;;;;;;;;;;14.30;99.90;;;;;;5089904;28;19912;-69
2021/06/09 03:32:21;;;;;;;;;;;14.30;99.90;;;;;;5086989;28;20327;-70
2021/06/09 03:35:13;;;;;;;;;;;14.40;99.90;;;;;;5090794;28;19908;-69
2021/06/09 03:37:40;;;;;;;;;;;14.40;99.90;;;;;;5087717;28;20379;-70
2021/06/09 03:40:06;;;;;;;;;;;14.50;99.90;;;;;;5090634;28;20358;-69
2021/06/09 03:42:34;;;;;;;;;;;14.50;99.90;;;;;;5090818;28;20283;-69
2021/06/09 03:45:00;;;;;;;;;;;14.50;99.90;;;;;;5090547;28;19915;-70
2021/06/09 03:47:26;;;;;;;;;;;14.40;99.90;;;;;;5090049;28;20015;-69
2021/06/09 03:49:52;;;;;;;;;;;14.40;99.90;;;;;;5090931;28;19912;-69
2021/06/09 03:52:19;;;;;;;;;;;14.50;99.90;;;;;;5090503;28;20011;-70
2021/06/09 03:54:48;;;;;;;;;;;14.50;99.90;;;;;;5090591;28;20385;-69
2021/06/09 03:57:14;;;;;;;;;;;14.50;99.90;;;;;;5089589;28;19912;-69
2021/06/09 03:59:41;;;;;;;;;;;14.50;99.90;;;;;;5090282;28;20280;-69
2021/06/09 04:02:07;;;;;;;;;;;14.50;99.90;;;;;;5085816;28;19949;-69
2021/06/09 04:04:34;;;;;;;;;;;14.50;99.90;;;;;;5090340;28;20398;-69
2021/06/09 04:06:59;;;;;;;;;;;14.60;99.90;;;;;;5089728;28;20007;-69
2021/06/09 04:09:25;;;;;;;;;;;14.60;99.90;;;;;;5090283;28;20008;-69
2021/06/09 04:12:01;;;;;;;;;;;14.60;99.90;;;;;;5093169;28;19908;-70
2021/06/09 04:14:31;;;;;;;;;;;14.60;99.90;;;;;;5093959;28;19908;-69
2021/06/09 04:16:57;;;;;;;;;;;14.70;99.90;;;;;;5092947;28;19913;-69
2021/06/09 04:19:24;;;;;;;;;;;14.70;99.90;;;;;;5093743;28;19965;-69
2021/06/09 04:21:50;;;;;;;;;;;14.80;99.90;;;;;;5093656;28;19908;-70
2021/06/09 04:24:16;;;;;;;;;;;14.70;99.90;;;;;;5093840;28;19936;-69
2021/06/09 04:26:42;;;;;;;;;;;14.70;99.90;;;;;;5093002;28;19912;-69
2021/06/09 04:29:08;;;;;;;;;;;14.70;99.90;;;;;;5093725;28;19912;-70
2021/06/09 04:31:33;;;;;;;;;;;14.70;99.90;;;;;;5088186;28;19953;-69
2021/06/09 04:33:59;;;;;;;;;;;14.80;99.90;;;;;;5093724;28;19914;-69
2021/06/09 04:36:25;;;;;;;;;;;14.90;99.90;;;;;;5092755;28;19950;-69
2021/06/09 04:38:51;;;;;;;;;;;15.00;99.90;;;;;;5093670;28;20373;-70
2021/06/09 04:41:17;;;;;;;;;;;15.10;99.90;;;;;;5093497;28;19916;-69
2021/06/09 04:43:43;;;;;;;;;;;15.10;99.90;;;;;;5093415;28;20319;-69
2021/06/09 04:46:08;;;;;;;;;;;15.10;99.90;;;;;;5092423;28;19908;-70
2021/06/09 04:48:34;;;;;;;;;;;15.20;99.90;;;;;;5093448;28;20006;-69
2021/06/09 04:50:59;;;;;;;;;;;15.20;99.90;;;;;;5093392;28;19908;-69
2021/06/09 04:53:25;;;;;;;;;;;15.30;99.90;;;;;;5089128;28;19939;-69
2021/06/09 04:55:51;;;;;;;;;;;15.40;99.90;;;;;;5092671;28;19951;-69
2021/06/09 04:58:18;;;;;;;;;;;15.50;99.90;;;;;;5092989;28;19912;-69
2021/06/09 05:00:45;;;;;;;;;;;15.60;99.90;;;;;;5093020;28;19908;-70
2021/06/09 05:03:10;;;;;;;;;;;15.70;99.90;;;;;;5093392;28;19912;-70
2021/06/09 05:05:36;;;;;;;;;;;15.70;99.90;;;;;;5092571;28;19915;-69
2021/06/09 05:08:02;;;;;;;;;;;15.60;99.90;;;;;;5092694;28;19908;-68
2021/06/09 05:10:27;;;;;;;;;;;15.60;99.90;;;;;;5093131;28;19952;-70
2021/06/09 05:12:55;;;;;;;;;;;15.50;99.90;;;;;;5092827;28;20465;-70
2021/06/09 05:15:23;;;;;;;;;;;15.60;99.90;;;;;;5092689;28;20376;-70
2021/06/09 05:17:49;;;;;;;;;;;15.70;99.90;;;;;;5091760;28;19944;-70
2021/06/09 05:20:24;;;;;;;;;;;15.80;99.90;;;;;;5092888;28;19995;-70
2021/06/09 05:22:53;;;;;;;;;;;16.00;99.90;;;;;;5088922;28;19908;-70
2021/06/09 05:25:19;;;;;;;;;;;16.00;99.90;;;;;;5092537;28;19912;-70
2021/06/09 05:27:45;;;;;;;;;;;16.10;99.90;;;;;;5091859;28;19924;-70
2021/06/09 05:30:11;;;;;;;;;;;16.20;99.90;;;;;;5093511;28;20269;-70
2021/06/09 05:32:37;;;;;;;;;;;16.20;99.90;;;;;;5092894;28;19912;-70
2021/06/09 05:35:03;;;;;;;;;;;16.20;99.90;;;;;;5093318;28;19908;-69
2021/06/09 05:37:29;;;;;;;;;;;16.30;99.90;;;;;;5092285;28;19916;-70
2021/06/09 05:39:59;;;;;;;;;;;16.40;99.90;;;;;;5092458;28;20281;-70
2021/06/09 05:42:25;;;;;;;;;;;16.60;99.90;;;;;;5091304;28;20067;-69
2021/06/09 05:44:53;;;;;;;;;;;16.80;99.90;;;;;;5093940;28;19908;-69
2021/06/09 05:47:19;;;;;;;;;;;17.00;99.90;;;;;;5092879;28;19908;-70
2021/06/09 05:49:45;;;;;;;;;;;17.40;99.90;;;;;;5092704;28;19908;-70
2021/06/09 05:52:12;;;;;;;;;;;17.80;99.90;;;;;;5090367;28;19908;-70
2021/06/09 05:54:38;;;;;;;;;;;18.30;99.90;;;;;;5092221;28;19999;-70
2021/06/09 05:57:05;;;;;;;;;;;18.80;99.90;;;;;;5090454;28;20270;-70
2021/06/09 05:59:31;;;;;;;;;;;19.20;99.90;;;;;;5090070;28;19934;-68
2021/06/09 06:01:56;;;;;;;;;;;19.30;99.90;;;;;;5086379;28;20365;-70
2021/06/09 06:04:22;;;;;;;;;;;19.60;99.90;;;;;;5082247;28;19953;-70
2021/06/09 06:06:48;;;;;;;;;;;19.80;99.90;;;;;;5084264;28;20281;-70
2021/06/09 06:09:14;;;;;;;;;;;20.30;99.90;;;;;;5091827;28;19950;-70
2021/06/09 06:11:41;;;;;;;;;;;20.70;99.90;;;;;;5091963;28;19940;-70
2021/06/09 06:14:10;;;;;;;;;;;21.00;99.90;;;;;;5092012;28;20090;-70
2021/06/09 06:16:37;;;;;;;;;;;21.20;99.90;;;;;;5090922;28;20002;-70
2021/06/09 06:19:03;;;;;;;;;;;21.30;99.90;;;;;;5091836;28;19912;-71
2021/06/09 06:21:29;;;;;;;;;;;21.50;99.90;;;;;;5090704;28;20089;-71
2021/06/09 06:23:55;;;;;;;;;;;21.80;99.90;;;;;;5091598;28;19915;-71
2021/06/09 06:26:21;;;;;;;;;;;21.90;99.90;;;;;;5090965;28;20292;-71
2021/06/09 06:28:47;;;;;;;;;;;22.10;99.90;;;;;;5091723;28;20034;-71
2021/06/09 06:31:14;;;;;;;;;;;22.40;99.90;;;;;;5090266;28;19915;-71
2021/06/09 06:33:40;;;;;;;;;;;22.40;99.90;;;;;;5087993;28;20054;-70
2021/06/09 06:36:06;;;;;;;;;;;22.70;99.90;;;;;;5085502;28;19908;-71
2021/06/09 06:38:36;;;;;;;;;;;23.20;99.90;;;;;;5090697;28;19927;-70
2021/06/09 06:41:02;;;;;;;;;;;23.20;99.90;;;;;;5069109;28;19916;-71
2021/06/09 06:43:28;;;;;;;;;;;23.30;99.90;;;;;;5071327;28;19916;-70
2021/06/09 06:45:53;;;;;;;;;;;23.40;99.90;;;;;;5070167;28;19955;-71
2021/06/09 06:48:21;;;;;;;;;;;23.60;99.90;;;;;;5071277;28;20022;-71
2021/06/09 06:50:46;;;;;;;;;;;23.80;99.90;;;;;;5071115;28;19908;-71
2021/06/09 06:53:12;;;;;;;;;;;23.90;99.90;;;;;;5070927;28;20449;-71
2021/06/09 06:55:38;;;;;;;;;;;23.60;99.90;;;;;;5070394;28;19917;-70
2021/06/09 06:58:04;;;;;;;;;;;23.60;99.90;;;;;;5083682;28;20361;-72
2021/06/09 07:00:30;;;;;;;;;;;23.50;99.90;;;;;;5090529;28;19916;-71
2021/06/09 07:02:57;;;;;;;;;;;23.60;99.90;;;;;;5090774;28;20564;-71
2021/06/09 07:05:24;;;;;;;;;;;23.70;99.90;;;;;;5091439;28;20019;-71
2021/06/09 07:07:50;;;;;;;;;;;23.90;99.90;;;;;;5090167;28;20266;-71
2021/06/09 07:10:16;;;;;;;;;;;23.90;99.90;;;;;;5091095;28;20105;-71
2021/06/09 07:12:43;;;;;;;;;;;23.60;99.90;;;;;;5091102;28;19915;-71
2021/06/09 07:15:09;;;;;;;;;;;23.20;99.90;;;;;;5091120;28;19913;-70
2021/06/09 07:17:38;;;;;;;;;;;22.90;99.90;;;;;;5089801;28;19908;-70
2021/06/09 07:20:06;;;;;;;;;;;22.60;99.90;;;;;;5090828;28;20254;-70
2021/06/09 07:22:31;;;;;;;;;;;22.40;99.90;;;;;;5091173;28;19919;-71
2021/06/09 07:24:57;;;;;;;;;;;22.10;99.90;;;;;;5090749;28;19908;-70
2021/06/09 07:27:25;;;;;;;;;;;22.30;99.90;;;;;;5090386;28;19915;-71
2021/06/09 07:29:51;;;;;;;;;;;22.70;99.90;;;;;;5090807;28;19916;-71
2021/06/09 07:32:17;;;;;;;;;;;23.10;99.90;;;;;;5089337;28;20254;-71
2021/06/09 07:34:42;;;;;;;;;;;23.40;99.90;;;;;;5089598;28;20273;-71
2021/06/09 07:37:11;;;;;;;;;;;23.20;99.90;;;;;;5090029;28;19908;-71
2021/06/09 07:39:57;;;;;;;;;;;22.60;99.90;;;;;;5090518;28;19912;-71
2021/06/09 07:42:23;;;;;;;;;;;22.30;99.90;;;;;;5091010;28;20335;-71
2021/06/09 07:45:00;;;;;;;;;;;21.90;99.90;;;;;;5090753;28;19908;-69
2021/06/09 07:47:29;;;;;;;;;;;21.80;99.90;;;;;;5094014;28;19935;-71
2021/06/09 07:49:55;;;;;;;;;;;21.70;99.90;;;;;;5094696;28;19908;-71
2021/06/09 07:52:21;;;;;;;;;;;21.70;99.90;;;;;;5094819;28;20295;-71
2021/06/09 07:54:49;;;;;;;;;;;21.60;99.90;;;;;;5094588;28;19951;-70
2021/06/09 07:57:14;;;;;;;;;;;21.50;99.90;;;;;;5092647;28;19965;-71
2021/06/09 07:59:40;;;;;;;;;;;21.50;99.90;;;;;;5091201;28;19912;-71
2021/06/09 08:02:06;;;;;;;;;;;21.80;99.90;;;;;;5092520;28;19912;-70
2021/06/09 08:04:33;;;;;;;;;;;22.30;99.90;;;;;;5094355;28;20384;-71
2021/06/09 08:06:58;;;;;;;;;;;23.10;99.90;;;;;;5093853;28;19919;-71
2021/06/09 08:09:25;;;;;;;;;;;23.80;99.90;;;;;;5094319;28;19909;-71
2021/06/09 08:11:52;;;;;;;;;;;24.70;99.90;;;;;;5094347;28;19994;-71
2021/06/09 08:14:17;;;;;;;;;;;25.30;99.90;;;;;;5094156;28;19908;-71
2021/06/09 08:16:43;;;;;;;;;;;25.80;99.90;;;;;;5093664;28;19908;-72
2021/06/09 08:19:09;;;;;;;;;;;26.20;99.90;;;;;;5094768;28;19912;-71
2021/06/09 08:21:35;;;;;;;;;;;26.50;99.90;;;;;;5094601;28;20356;-71
2021/06/09 08:24:01;;;;;;;;;;;26.70;99.90;;;;;;5094485;28;19908;-71
2021/06/09 08:26:27;;;;;;;;;;;26.60;99.90;;;;;;5093569;28;19918;-71
2021/06/09 08:28:53;;;;;;;;;;;26.40;99.90;;;;;;5093422;28;20261;-71
2021/06/09 08:31:23;;;;;;;;;;;26.10;99.90;;;;;;5092604;28;19908;-72
2021/06/09 08:33:51;;;;;;;;;;;25.90;99.90;;;;;;5092863;28;19908;-71
2021/06/09 08:36:18;;;;;;;;;;;25.80;99.90;;;;;;5093280;28;20365;-72
2021/06/09 08:38:44;;;;;;;;;;;25.70;99.90;;;;;;5093764;28;19912;-71
2021/06/09 08:41:10;;;;;;;;;;;25.50;99.90;;;;;;5093885;28;19916;-71
2021/06/09 08:43:37;;;;;;;;;;;25.30;99.90;;;;;;5093487;28;19915;-71
2021/06/09 08:46:03;;;;;;;;;;;25.10;99.90;;;;;;5093130;28;20379;-71
2021/06/09 08:48:29;;;;;;;;;;;24.90;99.90;;;;;;5093501;28;20391;-70
2021/06/09 08:50:55;;;;;;;;;;;24.80;99.90;;;;;;5093785;28;19930;-71
2021/06/09 08:53:21;;;;;;;;;;;24.80;99.90;;;;;;5093554;28;19908;-71
2021/06/09 08:55:48;;;;;;;;;;;24.80;99.90;;;;;;5092680;28;19908;-71
2021/06/09 08:58:14;;;;;;;;;;;25.10;99.90;;;;;;5084112;28;20400;-71
2021/06/09 09:00:40;;;;;;;;;;;25.50;99.90;;;;;;5105090;28;19908;-70
2021/06/09 09:03:06;;;;;;;;;;;26.00;99.90;;;;;;5113850;28;19907;-71
2021/06/09 09:05:32;;;;;;;;;;;26.40;99.90;;;;;;5113710;28;19912;-72
2021/06/09 09:07:59;;;;;;;;;;;26.80;99.90;;;;;;5113312;28;19997;-71
2021/06/09 09:10:25;;;;;;;;;;;27.10;99.90;;;;;;5113637;28;20019;-71
2021/06/09 09:12:51;;;;;;;;;;;27.10;99.90;;;;;;5091468;28;19912;-69
2021/06/09 09:15:17;;;;;;;;;;;27.10;99.90;;;;;;5093848;28;19914;-72
2021/06/09 09:17:54;;;;;;;;;;;27.00;99.90;;;;;;5092834;28;19908;-71
2021/06/09 09:20:22;;;;;;;;;;;27.00;99.90;;;;;;5093188;28;19935;-71
2021/06/09 09:22:47;;;;;;;;;;;26.80;99.90;;;;;;5092705;28;20380;-71
2021/06/09 09:25:15;;;;;;;;;;;26.70;99.90;;;;;;5092766;28;20192;-71
2021/06/09 09:27:40;;;;;;;;;;;26.50;99.90;;;;;;5091995;28;19934;-72
2021/06/09 09:30:06;;;;;;;;;;;26.20;99.90;;;;;;5092822;28;19912;-71
2021/06/09 09:32:32;;;;;;;;;;;26.10;99.90;;;;;;5091369;28;19912;-71
2021/06/09 09:35:08;;;;;;;;;;;26.00;99.90;;;;;;5091650;28;19919;-69
2021/06/09 09:37:33;;;;;;;;;;;26.20;99.90;;;;;;5091142;28;19958;-71
2021/06/09 09:40:18;;;;;;;;;;;26.40;99.90;;;;;;5090863;28;19955;-71
2021/06/09 09:42:46;;;;;;;;;;;26.70;99.90;;;;;;5092523;28;20166;-72
2021/06/09 09:45:12;;;;;;;;;;;27.30;99.90;;;;;;5092545;28;19909;-72
2021/06/09 09:47:38;;;;;;;;;;;27.80;99.90;;;;;;5091779;28;19981;-70
2021/06/09 09:50:03;;;;;;;;;;;27.90;99.90;;;;;;5088886;28;20385;-70
2021/06/09 09:52:29;;;;;;;;;;;27.80;99.90;;;;;;5092387;28;20032;-71
2021/06/09 09:54:58;;;;;;;;;;;28.00;99.90;;;;;;5091994;28;20428;-71
2021/06/09 09:57:31;;;;;;;;;;;27.90;99.90;;;;;;5091676;28;19908;-72
2021/06/09 09:59:56;;;;;;;;;;;27.70;99.90;;;;;;5089413;28;19912;-70
2021/06/09 10:02:21;;;;;;;;;;;27.50;99.90;;;;;;5091322;28;19908;-71
2021/06/09 10:04:52;;;;;;;;;;;27.30;99.90;;;;;;5091753;28;19912;-71
2021/06/09 10:07:17;;;;;;;;;;;26.70;99.90;;;;;;5091371;28;20365;-71
2021/06/09 10:09:44;;;;;;;;;;;25.90;99.90;;;;;;5091769;28;19915;-71
2021/06/09 10:12:10;;;;;;;;;;;25.30;99.90;;;;;;5092067;28;19908;-71
2021/06/09 10:14:46;;;;;;;;;;;25.00;99.90;;;;;;5092083;28;19909;-71
2021/06/09 10:17:19;;;;;;;;;;;24.80;99.90;;;;;;5091041;28;19908;-71
2021/06/09 10:19:49;;;;;;;;;;;24.60;99.90;;;;;;5089496;28;19913;-69
2021/06/09 10:22:17;;;;;;;;;;;24.40;99.90;;;;;;5091567;28;19908;-71
2021/06/09 10:24:45;;;;;;;;;;;24.20;99.90;;;;;;5091558;28;19914;-70
2021/06/09 10:27:12;;;;;;;;;;;24.20;99.90;;;;;;5090887;28;19915;-71
2021/06/09 10:29:37;;;;;;;;;;;24.60;99.90;;;;;;5091345;28;19915;-71
2021/06/09 10:32:10;;;;;;;;;;;25.10;99.90;;;;;;5088909;28;19908;-70
2021/06/09 10:34:36;;;;;;;;;;;25.80;99.90;;;;;;5090834;28;19916;-71
2021/06/09 10:37:03;;;;;;;;;;;26.40;99.90;;;;;;5090744;28;19961;-71
2021/06/09 10:39:30;;;;;;;;;;;26.80;99.90;;;;;;5091396;28;19958;-71
2021/06/09 10:41:57;;;;;;;;;;;27.20;99.90;;;;;;5091939;28;20325;-71
2021/06/09 10:44:24;;;;;;;;;;;27.70;99.90;;;;;;5091306;28;19916;-71
2021/06/09 10:46:52;;;;;;;;;;;28.20;99.90;;;;;;5090652;28;19918;-71
2021/06/09 10:49:19;;;;;;;;;;;28.90;99.90;;;;;;5091685;28;19994;-71
2021/06/09 10:51:46;;;;;;;;;;;29.00;99.30;;;;;;5091419;28;20003;-71
2021/06/09 10:54:13;;;;;;;;;;;29.20;99.90;;;;;;5091289;28;20288;-71
2021/06/09 10:56:40;;;;;;;;;;;29.40;99.80;;;;;;5090265;28;20288;-71
2021/06/09 10:59:06;;;;;;;;;;;29.20;99.10;;;;;;5088119;28;19920;-71
2021/06/09 11:01:32;;;;;;;;;;;28.90;99.50;;;;;;5090997;28;19920;-71
2021/06/09 11:03:59;;;;;;;;;;;28.30;98.60;;;;;;5091031;28;20292;-71
2021/06/09 11:06:41;;;;;;;;;;;27.70;99.70;;;;;;5090331;28;19908;-72
2021/06/09 11:09:21;;;;;;;;;;;27.30;99.90;;;;;;5091159;28;19915;-71
2021/06/09 11:12:07;;;;;;;;;;;26.90;99.90;;;;;;5090996;28;20302;-72
2021/06/09 11:14:42;;;;;;;;;;;26.50;99.90;;;;;;5069343;28;19909;-71
2021/06/09 11:17:08;;;;;;;;;;;26.10;99.90;;;;;;5090334;28;19957;-70
2021/06/09 11:19:38;;;;;;;;;;;25.60;99.90;;;;;;5090903;28;20328;-71
2021/06/09 11:22:18;;;;;;;;;;;25.30;99.90;;;;;;5094932;28;19919;-71
2021/06/09 11:25:02;;;;;;;;;;;25.10;99.90;;;;;;5094939;28;19908;-71
2021/06/09 11:27:29;;;;;;;;;;;24.90;99.90;;;;;;5094528;28;20384;-71
2021/06/09 11:29:54;;;;;;;;;;;24.70;99.90;;;;;;5095109;28;20258;-70
2021/06/09 11:32:21;;;;;;;;;;;24.60;99.90;;;;;;5093757;28;19908;-71
2021/06/09 11:34:56;;;;;;;;;;;24.60;99.90;;;;;;5093643;28;20049;-70
2021/06/09 11:37:22;;;;;;;;;;;24.50;99.90;;;;;;5094239;28;20002;-71
2021/06/09 11:40:01;;;;;;;;;;;24.50;99.90;;;;;;5094548;28;20012;-71
2021/06/09 11:42:26;;;;;;;;;;;24.60;99.90;;;;;;5095119;28;20293;-71
2021/06/09 11:44:52;;;;;;;;;;;24.60;99.90;;;;;;5094644;28;19912;-71
2021/06/09 11:47:23;;;;;;;;;;;24.50;99.90;;;;;;5094177;28;19973;-71
2021/06/09 11:49:49;;;;;;;;;;;24.40;99.90;;;;;;5094739;28;20281;-71
2021/06/09 11:52:15;;;;;;;;;;;24.20;99.90;;;;;;5094770;28;19912;-71
2021/06/09 11:54:41;;;;;;;;;;;24.10;99.90;;;;;;5094566;28;19989;-69
2021/06/09 11:57:17;;;;;;;;;;;24.20;99.90;;;;;;5092750;28;20399;-71
2021/06/09 11:59:44;;;;;;;;;;;24.60;99.90;;;;;;5094666;28;20368;-71
2021/06/09 12:02:17;;;;;;;;;;;25.30;99.90;;;;;;5090647;28;19909;-71
2021/06/09 12:04:49;;;;;;;;;;;25.90;99.90;;;;;;5074306;28;19915;-71
2021/06/09 12:07:25;;;;;;;;;;;26.50;99.90;;;;;;5073434;28;19909;-70
2021/06/09 12:09:53;;;;;;;;;;;27.10;99.90;;;;;;5073739;28;19909;-71
2021/06/09 12:12:22;;;;;;;;;;;27.70;99.90;;;;;;5074166;28;19913;-72
2021/06/09 12:14:48;;;;;;;;;;;27.90;99.90;;;;;;5074122;28;19981;-71
2021/06/09 12:17:15;;;;;;;;;;;28.10;99.90;;;;;;5073073;28;20377;-69
2021/06/09 12:19:45;;;;;;;;;;;28.40;99.90;;;;;;5073798;28;19920;-72
2021/06/09 12:22:19;;;;;;;;;;;28.70;99.90;;;;;;5073856;28;19912;-72
2021/06/09 12:24:54;;;;;;;;;;;28.90;99.60;;;;;;5074066;28;19909;-72
2021/06/09 12:27:20;;;;;;;;;;;28.80;99.20;;;;;;5073098;28;19931;-71
2021/06/09 12:29:45;;;;;;;;;;;28.90;99.10;;;;;;5073904;28;20361;-72
2021/06/09 12:32:24;;;;;;;;;;;28.70;98.30;;;;;;5088029;28;19908;-72
2021/06/09 12:35:16;;;;;;;;;;;28.80;99.90;;;;;;5093163;28;19914;-71
2021/06/09 12:37:46;;;;;;;;;;;29.10;99.40;;;;;;5070962;28;19908;-71
2021/06/09 12:40:14;;;;;;;;;;;29.20;99.10;;;;;;5073365;28;19923;-69
2021/06/09 12:42:45;;;;;;;;;;;29.30;98.90;;;;;;5073855;28;19962;-71
2021/06/09 12:45:10;;;;;;;;;;;29.10;97.80;;;;;;5073735;28;19916;-71
2021/06/09 12:47:38;;;;;;;;;;;28.70;97.40;;;;;;5072916;28;19908;-70
2021/06/09 12:50:07;;;;;;;;;;;28.00;97.80;;;;;;5074108;28;20126;-71
2021/06/09 12:52:32;;;;;;;;;;;27.40;98.00;;;;;;5074012;28;19916;-71
2021/06/09 12:54:58;;;;;;;;;;;26.90;99.10;;;;;;5073640;28;20358;-71
2021/06/09 12:57:30;;;;;;;;;;;26.50;99.90;;;;;;5073055;28;19909;-71
2021/06/09 12:59:56;;;;;;;;;;;26.10;99.90;;;;;;5084615;28;19912;-71
2021/06/09 13:02:21;;;;;;;;;;;25.80;99.90;;;;;;5095990;28;19915;-72
2021/06/09 13:04:47;;;;;;;;;;;25.40;99.90;;;;;;5095482;28;19998;-71
2021/06/09 13:07:20;;;;;;;;;;;25.10;99.90;;;;;;5113165;28;19914;-70
2021/06/09 13:09:53;;;;;;;;;;;24.90;99.90;;;;;;5113843;28;19908;-71
2021/06/09 13:12:24;;;;;;;;;;;24.60;99.90;;;;;;5113179;28;20038;-71
2021/06/09 13:14:49;;;;;;;;;;;24.20;99.90;;;;;;5113591;28;20312;-71
2021/06/09 13:17:15;;;;;;;;;;;24.00;99.90;;;;;;5112599;28;19908;-71
2021/06/09 13:19:40;;;;;;;;;;;23.90;99.90;;;;;;5113340;28;19911;-71
2021/06/09 13:22:06;;;;;;;;;;;23.90;99.90;;;;;;5113475;28;20369;-71
2021/06/09 13:24:34;;;;;;;;;;;24.00;99.90;;;;;;5113438;28;19911;-72
2021/06/09 13:27:10;;;;;;;;;;;24.10;99.90;;;;;;5112305;28;19912;-71
2021/06/09 13:29:36;;;;;;;;;;;24.40;99.90;;;;;;5113273;28;19931;-70
2021/06/09 13:32:09;;;;;;;;;;;24.50;99.90;;;;;;5095873;28;20365;-70
2021/06/09 13:34:35;;;;;;;;;;;24.60;99.90;;;;;;5091548;28;20011;-70
2021/06/09 13:37:01;;;;;;;;;;;24.40;99.90;;;;;;5091984;28;20027;-70
2021/06/09 13:39:36;;;;;;;;;;;24.40;99.90;;;;;;5092288;28;19923;-70
2021/06/09 13:42:02;;;;;;;;;;;24.30;99.90;;;;;;5086126;28;19919;-69
2021/06/09 13:44:33;;;;;;;;;;;24.00;99.90;;;;;;5090134;28;19908;-69
2021/06/09 13:47:00;;;;;;;;;;;24.00;99.90;;;;;;5091415;28;19908;-70
2021/06/09 13:49:26;;;;;;;;;;;23.80;99.90;;;;;;5092484;28;19919;-70
2021/06/09 13:51:52;;;;;;;;;;;23.80;99.90;;;;;;5092243;28;20281;-70
2021/06/09 13:54:27;;;;;;;;;;;23.50;99.90;;;;;;5092261;28;19996;-69
2021/06/09 13:56:53;;;;;;;;;;;23.40;99.90;;;;;;5091790;28;19908;-70
2021/06/09 13:59:23;;;;;;;;;;;23.40;99.90;;;;;;5089565;28;19912;-70
2021/06/09 14:01:50;;;;;;;;;;;23.40;99.90;;;;;;5091222;28;19912;-70
2021/06/09 14:04:16;;;;;;;;;;;23.40;99.90;;;;;;5091694;28;19961;-70
2021/06/09 14:06:42;;;;;;;;;;;23.40;99.90;;;;;;5091685;28;19954;-69
2021/06/09 14:09:09;;;;;;;;;;;23.40;99.90;;;;;;5092188;28;19951;-70
2021/06/09 14:11:54;;;;;;;;;;;23.30;99.90;;;;;;5092268;28;19912;-70
2021/06/09 14:14:20;;;;;;;;;;;23.10;99.90;;;;;;5091956;28;19912;-70
2021/06/09 14:17:02;;;;;;;;;;;23.20;99.90;;;;;;5091318;28;19909;-70
2021/06/09 14:19:28;;;;;;;;;;;23.10;99.90;;;;;;5091874;28;20147;-70
2021/06/09 14:21:53;;;;;;;;;;;23.00;99.90;;;;;;5092069;28;19951;-70